sensor_id;sensor_type;location;lat;lon;timestamp;P1;durP1;ratioP1;P2;durP2;ratioP2
7336;SDS011;54510;42.016;23.098;2022-11-15T00:00:25;26.05;;;15.63;;
7336;SDS011;54510;42.016;23.098;2022-11-15T00:02:54;36.20;;;16.80;;
7336;SDS011;54510;42.016;23.098;2022-11-15T00:05:19;33.67;;;16.83;;
7336;SDS011;54510;42.016;23.098;2022-11-15T00:07:45;30.98;;;16.42;;
7336;SDS011;54510;42.016;23.098;2022-11-15T00:10:11;24.02;;;15.23;;
7336;SDS011;54510;42.016;23.098;2022-11-15T00:12:37;20.45;;;12.05;;
7336;SDS011;54510;42.016;23.098;2022-11-15T00:15:02;19.67;;;11.30;;
7336;SDS011;54510;42.016;23.098;2022-11-15T00:17:28;23.33;;;12.52;;
7336;SDS011;54510;42.016;23.098;2022-11-15T00:19:53;20.80;;;11.52;;
7336;SDS011;54510;42.016;23.098;2022-11-15T00:22:19;22.60;;;12.88;;
7336;SDS011;54510;42.016;23.098;2022-11-15T00:24:44;19.05;;;11.52;;
7336;SDS011;54510;42.016;23.098;2022-11-15T00:27:10;19.45;;;10.27;;
7336;SDS011;54510;42.016;23.098;2022-11-15T00:29:35;14.50;;;9.55;;
7336;SDS011;54510;42.016;23.098;2022-11-15T00:32:03;18.35;;;9.70;;
7336;SDS011;54510;42.016;23.098;2022-11-15T00:34:29;15.45;;;9.85;;
7336;SDS011;54510;42.016;23.098;2022-11-15T00:36:54;14.60;;;8.88;;
7336;SDS011;54510;42.016;23.098;2022-11-15T00:39:20;15.38;;;8.93;;
7336;SDS011;54510;42.016;23.098;2022-11-15T00:41:45;17.10;;;11.07;;
7336;SDS011;54510;42.016;23.098;2022-11-15T00:44:10;18.42;;;10.68;;
7336;SDS011;54510;42.016;23.098;2022-11-15T00:46:36;14.07;;;10.02;;
7336;SDS011;54510;42.016;23.098;2022-11-15T00:49:01;20.90;;;12.43;;
7336;SDS011;54510;42.016;23.098;2022-11-15T00:51:27;25.23;;;14.52;;
7336;SDS011;54510;42.016;23.098;2022-11-15T00:53:52;25.20;;;14.80;;
7336;SDS011;54510;42.016;23.098;2022-11-15T00:56:17;27.67;;;15.13;;
7336;SDS011;54510;42.016;23.098;2022-11-15T00:58:43;25.60;;;15.40;;
7336;SDS011;54510;42.016;23.098;2022-11-15T01:01:09;25.42;;;14.88;;
7336;SDS011;54510;42.016;23.098;2022-11-15T01:03:36;32.38;;;15.80;;
7336;SDS011;54510;42.016;23.098;2022-11-15T01:06:02;28.30;;;15.82;;
7336;SDS011;54510;42.016;23.098;2022-11-15T01:08:28;23.75;;;14.43;;
7336;SDS011;54510;42.016;23.098;2022-11-15T01:10:53;24.73;;;15.27;;
7336;SDS011;54510;42.016;23.098;2022-11-15T01:13:19;24.55;;;13.10;;
7336;SDS011;54510;42.016;23.098;2022-11-15T01:15:44;23.25;;;13.50;;
7336;SDS011;54510;42.016;23.098;2022-11-15T01:18:10;24.75;;;12.68;;
7336;SDS011;54510;42.016;23.098;2022-11-15T01:20:44;24.98;;;12.98;;
7336;SDS011;54510;42.016;23.098;2022-11-15T01:23:09;28.70;;;13.80;;
7336;SDS011;54510;42.016;23.098;2022-11-15T01:25:35;25.23;;;13.10;;
7336;SDS011;54510;42.016;23.098;2022-11-15T01:28:00;23.25;;;13.93;;
7336;SDS011;54510;42.016;23.098;2022-11-15T01:30:25;23.60;;;14.27;;
7336;SDS011;54510;42.016;23.098;2022-11-15T01:32:51;23.50;;;13.98;;
7336;SDS011;54510;42.016;23.098;2022-11-15T01:35:16;23.92;;;14.65;;
7336;SDS011;54510;42.016;23.098;2022-11-15T01:37:42;24.60;;;12.38;;
7336;SDS011;54510;42.016;23.098;2022-11-15T01:40:07;27.27;;;12.70;;
7336;SDS011;54510;42.016;23.098;2022-11-15T01:42:33;27.08;;;14.43;;
7336;SDS011;54510;42.016;23.098;2022-11-15T01:44:58;24.75;;;12.65;;
7336;SDS011;54510;42.016;23.098;2022-11-15T01:52:23;22.95;;;12.90;;
7336;SDS011;54510;42.016;23.098;2022-11-15T01:55:36;19.38;;;12.13;;
7336;SDS011;54510;42.016;23.098;2022-11-15T01:57:43;21.38;;;10.60;;
7336;SDS011;54510;42.016;23.098;2022-11-15T02:00:11;23.48;;;13.80;;
7336;SDS011;54510;42.016;23.098;2022-11-15T02:02:37;23.02;;;11.57;;
7336;SDS011;54510;42.016;23.098;2022-11-15T02:05:03;19.73;;;10.20;;
7336;SDS011;54510;42.016;23.098;2022-11-15T02:07:29;17.20;;;9.77;;
7336;SDS011;54510;42.016;23.098;2022-11-15T02:10:01;13.73;;;8.70;;
7336;SDS011;54510;42.016;23.098;2022-11-15T02:12:31;17.45;;;9.88;;
7336;SDS011;54510;42.016;23.098;2022-11-15T02:14:57;18.60;;;9.90;;
7336;SDS011;54510;42.016;23.098;2022-11-15T02:17:32;19.33;;;9.75;;
7336;SDS011;54510;42.016;23.098;2022-11-15T02:20:08;16.50;;;9.10;;
7336;SDS011;54510;42.016;23.098;2022-11-15T02:30:53;25.98;;;13.48;;
7336;SDS011;54510;42.016;23.098;2022-11-15T02:41:44;24.50;;;13.52;;
7336;SDS011;54510;42.016;23.098;2022-11-15T02:44:23;21.13;;;12.13;;
7336;SDS011;54510;42.016;23.098;2022-11-15T02:46:58;30.10;;;13.90;;
7336;SDS011;54510;42.016;23.098;2022-11-15T02:49:40;26.63;;;14.82;;
7336;SDS011;54510;42.016;23.098;2022-11-15T02:52:18;36.97;;;14.25;;
7336;SDS011;54510;42.016;23.098;2022-11-15T02:57:21;26.10;;;15.20;;
7336;SDS011;54510;42.016;23.098;2022-11-15T03:00:11;27.23;;;15.13;;
7336;SDS011;54510;42.016;23.098;2022-11-15T03:05:37;29.15;;;14.82;;
7336;SDS011;54510;42.016;23.098;2022-11-15T03:11:07;30.00;;;15.27;;
7336;SDS011;54510;42.016;23.098;2022-11-15T03:13:44;29.15;;;14.73;;
7336;SDS011;54510;42.016;23.098;2022-11-15T03:19:07;33.95;;;15.88;;
7336;SDS011;54510;42.016;23.098;2022-11-15T03:21:36;36.90;;;14.70;;
7336;SDS011;54510;42.016;23.098;2022-11-15T03:24:05;27.27;;;14.82;;
7336;SDS011;54510;42.016;23.098;2022-11-15T03:26:33;28.52;;;15.27;;
7336;SDS011;54510;42.016;23.098;2022-11-15T03:29:06;25.00;;;14.57;;
7336;SDS011;54510;42.016;23.098;2022-11-15T03:31:39;30.77;;;14.98;;
7336;SDS011;54510;42.016;23.098;2022-11-15T03:34:15;17.83;;;10.55;;
7336;SDS011;54510;42.016;23.098;2022-11-15T03:36:47;20.75;;;9.65;;
7336;SDS011;54510;42.016;23.098;2022-11-15T03:39:14;20.60;;;12.40;;
7336;SDS011;54510;42.016;23.098;2022-11-15T03:41:43;25.95;;;14.00;;
7336;SDS011;54510;42.016;23.098;2022-11-15T03:46:54;27.25;;;9.00;;
7336;SDS011;54510;42.016;23.098;2022-11-15T03:49:32;15.07;;;9.18;;
7336;SDS011;54510;42.016;23.098;2022-11-15T03:52:01;17.55;;;9.63;;
7336;SDS011;54510;42.016;23.098;2022-11-15T03:54:28;13.77;;;8.38;;
7336;SDS011;54510;42.016;23.098;2022-11-15T03:56:54;24.85;;;14.45;;
7336;SDS011;54510;42.016;23.098;2022-11-15T03:59:19;25.83;;;14.13;;
7336;SDS011;54510;42.016;23.098;2022-11-15T04:01:45;26.98;;;14.48;;
7336;SDS011;54510;42.016;23.098;2022-11-15T04:04:10;24.67;;;14.85;;
7336;SDS011;54510;42.016;23.098;2022-11-15T04:06:36;25.83;;;13.65;;
7336;SDS011;54510;42.016;23.098;2022-11-15T04:09:01;24.00;;;14.13;;
7336;SDS011;54510;42.016;23.098;2022-11-15T04:11:27;26.85;;;15.25;;
7336;SDS011;54510;42.016;23.098;2022-11-15T04:13:52;24.67;;;13.02;;
7336;SDS011;54510;42.016;23.098;2022-11-15T04:16:18;23.08;;;12.90;;
7336;SDS011;54510;42.016;23.098;2022-11-15T04:18:43;26.05;;;13.88;;
7336;SDS011;54510;42.016;23.098;2022-11-15T04:21:08;21.88;;;12.02;;
7336;SDS011;54510;42.016;23.098;2022-11-15T04:26:18;25.85;;;13.52;;
7336;SDS011;54510;42.016;23.098;2022-11-15T04:28:46;26.70;;;12.70;;
7336;SDS011;54510;42.016;23.098;2022-11-15T04:31:30;25.05;;;14.93;;
7336;SDS011;54510;42.016;23.098;2022-11-15T04:33:55;23.05;;;13.63;;
7336;SDS011;54510;42.016;23.098;2022-11-15T04:36:21;24.23;;;14.13;;
7336;SDS011;54510;42.016;23.098;2022-11-15T04:39:05;24.15;;;11.95;;
7336;SDS011;54510;42.016;23.098;2022-11-15T04:41:31;25.40;;;13.48;;
7336;SDS011;54510;42.016;23.098;2022-11-15T04:43:57;26.48;;;14.15;;
7336;SDS011;54510;42.016;23.098;2022-11-15T04:46:23;22.10;;;13.43;;
7336;SDS011;54510;42.016;23.098;2022-11-15T04:48:48;24.42;;;13.48;;
7336;SDS011;54510;42.016;23.098;2022-11-15T04:51:14;23.80;;;12.38;;
7336;SDS011;54510;42.016;23.098;2022-11-15T04:53:40;20.63;;;12.60;;
7336;SDS011;54510;42.016;23.098;2022-11-15T04:56:05;33.00;;;13.65;;
7336;SDS011;54510;42.016;23.098;2022-11-15T04:58:31;20.45;;;12.65;;
7336;SDS011;54510;42.016;23.098;2022-11-15T05:00:56;22.25;;;13.38;;
7336;SDS011;54510;42.016;23.098;2022-11-15T05:03:21;25.92;;;12.85;;
7336;SDS011;54510;42.016;23.098;2022-11-15T05:06:05;26.70;;;12.73;;
7336;SDS011;54510;42.016;23.098;2022-11-15T05:08:31;22.90;;;13.60;;
7336;SDS011;54510;42.016;23.098;2022-11-15T05:10:57;27.70;;;13.32;;
7336;SDS011;54510;42.016;23.098;2022-11-15T05:13:22;27.13;;;13.38;;
7336;SDS011;54510;42.016;23.098;2022-11-15T05:15:47;35.58;;;15.15;;
7336;SDS011;54510;42.016;23.098;2022-11-15T05:18:13;29.92;;;14.07;;
7336;SDS011;54510;42.016;23.098;2022-11-15T05:20:38;29.02;;;15.55;;
7336;SDS011;54510;42.016;23.098;2022-11-15T05:23:04;26.63;;;14.00;;
7336;SDS011;54510;42.016;23.098;2022-11-15T05:25:29;34.45;;;18.67;;
7336;SDS011;54510;42.016;23.098;2022-11-15T05:27:55;33.45;;;16.30;;
7336;SDS011;54510;42.016;23.098;2022-11-15T05:30:20;36.00;;;14.68;;
7336;SDS011;54510;42.016;23.098;2022-11-15T05:32:46;23.48;;;14.40;;
7336;SDS011;54510;42.016;23.098;2022-11-15T05:35:13;29.83;;;13.88;;
7336;SDS011;54510;42.016;23.098;2022-11-15T05:37:45;34.50;;;14.83;;
7336;SDS011;54510;42.016;23.098;2022-11-15T05:40:11;28.58;;;15.57;;
7336;SDS011;54510;42.016;23.098;2022-11-15T05:42:36;26.63;;;13.57;;
7336;SDS011;54510;42.016;23.098;2022-11-15T05:45:03;29.50;;;14.52;;
7336;SDS011;54510;42.016;23.098;2022-11-15T05:47:31;24.88;;;14.48;;
7336;SDS011;54510;42.016;23.098;2022-11-15T05:49:59;27.08;;;15.38;;
7336;SDS011;54510;42.016;23.098;2022-11-15T05:52:25;26.45;;;15.45;;
7336;SDS011;54510;42.016;23.098;2022-11-15T05:54:55;33.75;;;16.60;;
7336;SDS011;54510;42.016;23.098;2022-11-15T05:57:23;31.85;;;16.40;;
7336;SDS011;54510;42.016;23.098;2022-11-15T05:59:49;70.78;;;30.15;;
7336;SDS011;54510;42.016;23.098;2022-11-15T06:02:15;113.30;;;50.65;;
7336;SDS011;54510;42.016;23.098;2022-11-15T06:04:40;154.95;;;67.65;;
7336;SDS011;54510;42.016;23.098;2022-11-15T06:07:06;240.52;;;114.25;;
7336;SDS011;54510;42.016;23.098;2022-11-15T06:09:31;202.18;;;95.88;;
7336;SDS011;54510;42.016;23.098;2022-11-15T06:11:57;87.03;;;40.90;;
7336;SDS011;54510;42.016;23.098;2022-11-15T06:14:22;57.40;;;27.50;;
7336;SDS011;54510;42.016;23.098;2022-11-15T06:16:47;31.48;;;17.15;;
7336;SDS011;54510;42.016;23.098;2022-11-15T06:19:13;29.27;;;16.95;;
7336;SDS011;54510;42.016;23.098;2022-11-15T06:21:38;29.02;;;16.65;;
7336;SDS011;54510;42.016;23.098;2022-11-15T06:24:04;27.83;;;15.32;;
7336;SDS011;54510;42.016;23.098;2022-11-15T06:26:30;35.65;;;15.85;;
7336;SDS011;54510;42.016;23.098;2022-11-15T06:28:55;27.08;;;17.10;;
7336;SDS011;54510;42.016;23.098;2022-11-15T06:31:20;30.67;;;17.02;;
7336;SDS011;54510;42.016;23.098;2022-11-15T06:33:46;33.45;;;18.35;;
7336;SDS011;54510;42.016;23.098;2022-11-15T06:36:12;33.75;;;16.98;;
7336;SDS011;54510;42.016;23.098;2022-11-15T06:38:44;31.23;;;16.20;;
7336;SDS011;54510;42.016;23.098;2022-11-15T06:41:10;25.95;;;15.77;;
7336;SDS011;54510;42.016;23.098;2022-11-15T06:43:36;29.65;;;16.30;;
7336;SDS011;54510;42.016;23.098;2022-11-15T06:46:03;30.17;;;17.38;;
7336;SDS011;54510;42.016;23.098;2022-11-15T06:48:29;33.83;;;16.33;;
7336;SDS011;54510;42.016;23.098;2022-11-15T06:50:58;32.47;;;17.02;;
7336;SDS011;54510;42.016;23.098;2022-11-15T06:53:25;30.35;;;16.35;;
7336;SDS011;54510;42.016;23.098;2022-11-15T06:55:51;35.10;;;17.55;;
7336;SDS011;54510;42.016;23.098;2022-11-15T06:58:17;37.95;;;19.63;;
7336;SDS011;54510;42.016;23.098;2022-11-15T07:00:43;54.90;;;30.80;;
7336;SDS011;54510;42.016;23.098;2022-11-15T07:03:09;42.90;;;22.98;;
7336;SDS011;54510;42.016;23.098;2022-11-15T07:05:35;36.63;;;22.98;;
7336;SDS011;54510;42.016;23.098;2022-11-15T07:08:01;48.00;;;23.88;;
7336;SDS011;54510;42.016;23.098;2022-11-15T07:10:26;44.90;;;23.17;;
7336;SDS011;54510;42.016;23.098;2022-11-15T07:12:52;41.15;;;23.77;;
7336;SDS011;54510;42.016;23.098;2022-11-15T07:15:20;40.10;;;22.80;;
7336;SDS011;54510;42.016;23.098;2022-11-15T07:17:46;41.58;;;22.20;;
7336;SDS011;54510;42.016;23.098;2022-11-15T07:20:12;39.95;;;20.90;;
7336;SDS011;54510;42.016;23.098;2022-11-15T07:22:40;45.78;;;19.98;;
7336;SDS011;54510;42.016;23.098;2022-11-15T07:25:06;40.90;;;23.80;;
7336;SDS011;54510;42.016;23.098;2022-11-15T07:27:32;40.13;;;21.60;;
7336;SDS011;54510;42.016;23.098;2022-11-15T07:29:58;47.17;;;20.15;;
7336;SDS011;54510;42.016;23.098;2022-11-15T07:32:24;36.88;;;20.75;;
7336;SDS011;54510;42.016;23.098;2022-11-15T07:34:49;42.78;;;22.13;;
7336;SDS011;54510;42.016;23.098;2022-11-15T07:37:15;51.65;;;21.75;;
7336;SDS011;54510;42.016;23.098;2022-11-15T07:39:42;38.25;;;19.13;;
7336;SDS011;54510;42.016;23.098;2022-11-15T07:42:07;43.33;;;21.27;;
7336;SDS011;54510;42.016;23.098;2022-11-15T07:44:51;43.03;;;21.67;;
7336;SDS011;54510;42.016;23.098;2022-11-15T07:47:17;43.30;;;21.60;;
7336;SDS011;54510;42.016;23.098;2022-11-15T07:49:42;51.58;;;24.30;;
7336;SDS011;54510;42.016;23.098;2022-11-15T07:52:07;55.33;;;26.45;;
7336;SDS011;54510;42.016;23.098;2022-11-15T07:54:33;81.88;;;42.60;;
7336;SDS011;54510;42.016;23.098;2022-11-15T07:56:58;57.78;;;30.23;;
7336;SDS011;54510;42.016;23.098;2022-11-15T07:59:24;68.03;;;33.60;;
7336;SDS011;54510;42.016;23.098;2022-11-15T08:01:49;57.28;;;32.55;;
7336;SDS011;54510;42.016;23.098;2022-11-15T08:04:14;61.60;;;28.90;;
7336;SDS011;54510;42.016;23.098;2022-11-15T08:06:40;49.08;;;26.20;;
7336;SDS011;54510;42.016;23.098;2022-11-15T08:09:05;63.22;;;28.65;;
7336;SDS011;54510;42.016;23.098;2022-11-15T08:11:31;57.10;;;25.38;;
7336;SDS011;54510;42.016;23.098;2022-11-15T08:13:56;61.42;;;26.05;;
7336;SDS011;54510;42.016;23.098;2022-11-15T08:16:22;48.53;;;24.52;;
7336;SDS011;54510;42.016;23.098;2022-11-15T08:18:47;44.58;;;22.33;;
7336;SDS011;54510;42.016;23.098;2022-11-15T08:21:14;56.90;;;24.15;;
7336;SDS011;54510;42.016;23.098;2022-11-15T08:23:44;73.22;;;32.97;;
7336;SDS011;54510;42.016;23.098;2022-11-15T08:26:09;47.67;;;25.73;;
7336;SDS011;54510;42.016;23.098;2022-11-15T08:28:35;59.53;;;27.15;;
7336;SDS011;54510;42.016;23.098;2022-11-15T08:31:00;51.22;;;25.75;;
7336;SDS011;54510;42.016;23.098;2022-11-15T08:33:27;67.18;;;31.42;;
7336;SDS011;54510;42.016;23.098;2022-11-15T08:35:55;73.45;;;35.58;;
7336;SDS011;54510;42.016;23.098;2022-11-15T08:38:22;57.83;;;28.50;;
7336;SDS011;54510;42.016;23.098;2022-11-15T08:40:47;49.33;;;26.30;;
7336;SDS011;54510;42.016;23.098;2022-11-15T08:43:13;50.45;;;26.58;;
7336;SDS011;54510;42.016;23.098;2022-11-15T08:45:38;57.67;;;25.27;;
7336;SDS011;54510;42.016;23.098;2022-11-15T08:48:03;40.92;;;22.13;;
7336;SDS011;54510;42.016;23.098;2022-11-15T08:50:29;40.78;;;23.40;;
7336;SDS011;54510;42.016;23.098;2022-11-15T08:52:55;43.70;;;22.02;;
7336;SDS011;54510;42.016;23.098;2022-11-15T08:55:20;40.30;;;20.15;;
7336;SDS011;54510;42.016;23.098;2022-11-15T08:57:46;45.25;;;24.10;;
7336;SDS011;54510;42.016;23.098;2022-11-15T09:00:11;42.10;;;21.75;;
7336;SDS011;54510;42.016;23.098;2022-11-15T09:02:41;36.75;;;19.50;;
7336;SDS011;54510;42.016;23.098;2022-11-15T09:05:07;36.55;;;19.33;;
7336;SDS011;54510;42.016;23.098;2022-11-15T09:07:33;42.88;;;20.75;;
7336;SDS011;54510;42.016;23.098;2022-11-15T09:09:58;43.75;;;20.17;;
7336;SDS011;54510;42.016;23.098;2022-11-15T09:12:24;36.13;;;19.77;;
7336;SDS011;54510;42.016;23.098;2022-11-15T09:14:50;40.22;;;19.08;;
7336;SDS011;54510;42.016;23.098;2022-11-15T09:17:16;47.15;;;21.75;;
7336;SDS011;54510;42.016;23.098;2022-11-15T09:19:41;74.90;;;43.35;;
7336;SDS011;54510;42.016;23.098;2022-11-15T09:22:07;58.40;;;25.52;;
7336;SDS011;54510;42.016;23.098;2022-11-15T09:24:33;45.30;;;21.67;;
7336;SDS011;54510;42.016;23.098;2022-11-15T09:26:59;36.88;;;20.38;;
7336;SDS011;54510;42.016;23.098;2022-11-15T09:29:25;39.05;;;20.55;;
7336;SDS011;54510;42.016;23.098;2022-11-15T09:31:53;45.75;;;25.45;;
7336;SDS011;54510;42.016;23.098;2022-11-15T09:34:19;52.63;;;26.25;;
7336;SDS011;54510;42.016;23.098;2022-11-15T09:36:45;41.53;;;22.33;;
7336;SDS011;54510;42.016;23.098;2022-11-15T09:39:11;43.55;;;20.52;;
7336;SDS011;54510;42.016;23.098;2022-11-15T09:49:43;37.90;;;18.27;;
7336;SDS011;54510;42.016;23.098;2022-11-15T09:52:08;39.30;;;20.33;;
7336;SDS011;54510;42.016;23.098;2022-11-15T09:54:36;42.15;;;19.75;;
7336;SDS011;54510;42.016;23.098;2022-11-15T10:02:33;36.85;;;17.98;;
7336;SDS011;54510;42.016;23.098;2022-11-15T10:05:04;28.23;;;16.67;;
7336;SDS011;54510;42.016;23.098;2022-11-15T10:07:46;30.85;;;17.25;;
7336;SDS011;54510;42.016;23.098;2022-11-15T10:10:27;31.60;;;18.10;;
7336;SDS011;54510;42.016;23.098;2022-11-15T10:12:54;32.92;;;17.50;;
7336;SDS011;54510;42.016;23.098;2022-11-15T10:15:20;41.60;;;19.10;;
7336;SDS011;54510;42.016;23.098;2022-11-15T10:20:32;33.63;;;18.00;;
7336;SDS011;54510;42.016;23.098;2022-11-15T10:23:10;37.03;;;19.35;;
7336;SDS011;54510;42.016;23.098;2022-11-15T10:25:38;30.50;;;16.75;;
7336;SDS011;54510;42.016;23.098;2022-11-15T10:28:09;30.88;;;17.00;;
7336;SDS011;54510;42.016;23.098;2022-11-15T10:30:54;32.83;;;17.83;;
7336;SDS011;54510;42.016;23.098;2022-11-15T10:33:34;31.23;;;18.70;;
7336;SDS011;54510;42.016;23.098;2022-11-15T10:43:42;33.00;;;18.05;;
7336;SDS011;54510;42.016;23.098;2022-11-15T10:46:18;31.42;;;17.60;;
7336;SDS011;54510;42.016;23.098;2022-11-15T10:48:45;30.48;;;16.92;;
7336;SDS011;54510;42.016;23.098;2022-11-15T10:51:19;35.38;;;17.15;;
7336;SDS011;54510;42.016;23.098;2022-11-15T10:53:47;33.00;;;17.88;;
7336;SDS011;54510;42.016;23.098;2022-11-15T10:56:14;28.25;;;17.77;;
7336;SDS011;54510;42.016;23.098;2022-11-15T10:58:50;32.13;;;17.63;;
7336;SDS011;54510;42.016;23.098;2022-11-15T11:01:28;33.38;;;17.50;;
7336;SDS011;54510;42.016;23.098;2022-11-15T11:04:27;37.67;;;21.73;;
7336;SDS011;54510;42.016;23.098;2022-11-15T11:06:50;31.58;;;16.98;;
7336;SDS011;54510;42.016;23.098;2022-11-15T11:09:27;32.45;;;20.50;;
7336;SDS011;54510;42.016;23.098;2022-11-15T11:11:57;34.05;;;22.33;;
7336;SDS011;54510;42.016;23.098;2022-11-15T11:17:00;44.65;;;22.75;;
7336;SDS011;54510;42.016;23.098;2022-11-15T11:19:36;33.63;;;19.60;;
7336;SDS011;54510;42.016;23.098;2022-11-15T11:22:20;33.92;;;17.70;;
7336;SDS011;54510;42.016;23.098;2022-11-15T11:33:34;34.78;;;18.80;;
7336;SDS011;54510;42.016;23.098;2022-11-15T11:41:20;36.08;;;16.92;;
7336;SDS011;54510;42.016;23.098;2022-11-15T11:44:30;30.65;;;17.05;;
7336;SDS011;54510;42.016;23.098;2022-11-15T11:46:56;28.20;;;16.58;;
7336;SDS011;54510;42.016;23.098;2022-11-15T11:54:49;29.38;;;16.67;;
7336;SDS011;54510;42.016;23.098;2022-11-15T11:57:37;29.38;;;16.90;;
7336;SDS011;54510;42.016;23.098;2022-11-15T12:00:24;25.42;;;16.48;;
7336;SDS011;54510;42.016;23.098;2022-11-15T12:11:28;29.48;;;16.90;;
7336;SDS011;54510;42.016;23.098;2022-11-15T12:14:01;24.30;;;15.13;;
7336;SDS011;54510;42.016;23.098;2022-11-15T12:16:31;27.48;;;17.27;;
7336;SDS011;54510;42.016;23.098;2022-11-15T12:19:02;36.38;;;21.38;;
7336;SDS011;54510;42.016;23.098;2022-11-15T12:24:20;25.45;;;16.52;;
7336;SDS011;54510;42.016;23.098;2022-11-15T12:27:30;22.35;;;15.30;;
7336;SDS011;54510;42.016;23.098;2022-11-15T12:29:58;19.10;;;12.30;;
7336;SDS011;54510;42.016;23.098;2022-11-15T12:32:29;28.08;;;15.50;;
7336;SDS011;54510;42.016;23.098;2022-11-15T12:34:58;17.30;;;11.82;;
7336;SDS011;54510;42.016;23.098;2022-11-15T12:42:59;21.60;;;14.10;;
7336;SDS011;54510;42.016;23.098;2022-11-15T12:45:30;20.23;;;13.75;;
7336;SDS011;54510;42.016;23.098;2022-11-15T12:56:08;19.02;;;12.48;;
7336;SDS011;54510;42.016;23.098;2022-11-15T13:06:58;21.85;;;13.80;;
7336;SDS011;54510;42.016;23.098;2022-11-15T13:12:10;17.55;;;12.10;;
7336;SDS011;54510;42.016;23.098;2022-11-15T13:17:23;19.90;;;12.75;;
7336;SDS011;54510;42.016;23.098;2022-11-15T13:22:42;17.77;;;12.25;;
7336;SDS011;54510;42.016;23.098;2022-11-15T13:30:38;24.25;;;15.80;;
7336;SDS011;54510;42.016;23.098;2022-11-15T13:33:16;22.40;;;17.05;;
7336;SDS011;54510;42.016;23.098;2022-11-15T13:35:51;19.63;;;14.20;;
7336;SDS011;54510;42.016;23.098;2022-11-15T13:38:26;19.27;;;12.65;;
7336;SDS011;54510;42.016;23.098;2022-11-15T13:40:54;18.52;;;11.48;;
7336;SDS011;54510;42.016;23.098;2022-11-15T13:46:03;20.42;;;13.32;;
7336;SDS011;54510;42.016;23.098;2022-11-15T13:48:32;21.65;;;12.55;;
7336;SDS011;54510;42.016;23.098;2022-11-15T13:50:58;21.20;;;12.85;;
7336;SDS011;54510;42.016;23.098;2022-11-15T13:53:25;22.98;;;13.15;;
7336;SDS011;54510;42.016;23.098;2022-11-15T13:55:51;17.30;;;12.25;;
7336;SDS011;54510;42.016;23.098;2022-11-15T13:58:20;18.08;;;13.02;;
7336;SDS011;54510;42.016;23.098;2022-11-15T14:00:46;20.83;;;13.88;;
7336;SDS011;54510;42.016;23.098;2022-11-15T14:03:22;21.33;;;14.88;;
7336;SDS011;54510;42.016;23.098;2022-11-15T14:06:10;20.30;;;13.18;;
7336;SDS011;54510;42.016;23.098;2022-11-15T14:11:28;25.13;;;14.00;;
7336;SDS011;54510;42.016;23.098;2022-11-15T14:16:38;18.33;;;12.23;;
7336;SDS011;54510;42.016;23.098;2022-11-15T14:19:06;21.48;;;14.70;;
7336;SDS011;54510;42.016;23.098;2022-11-15T14:21:35;27.60;;;15.23;;
7336;SDS011;54510;42.016;23.098;2022-11-15T14:26:45;20.48;;;11.70;;
7336;SDS011;54510;42.016;23.098;2022-11-15T14:29:28;35.80;;;22.52;;
7336;SDS011;54510;42.016;23.098;2022-11-15T14:34:42;22.98;;;13.15;;
7336;SDS011;54510;42.016;23.098;2022-11-15T14:37:29;20.38;;;12.02;;
7336;SDS011;54510;42.016;23.098;2022-11-15T14:40:02;20.25;;;11.85;;
7336;SDS011;54510;42.016;23.098;2022-11-15T14:42:29;23.40;;;13.77;;
7336;SDS011;54510;42.016;23.098;2022-11-15T14:44:54;19.63;;;12.70;;
7336;SDS011;54510;42.016;23.098;2022-11-15T14:47:20;35.33;;;24.08;;
7336;SDS011;54510;42.016;23.098;2022-11-15T14:49:45;25.60;;;16.17;;
7336;SDS011;54510;42.016;23.098;2022-11-15T14:52:30;25.95;;;14.88;;
7336;SDS011;54510;42.016;23.098;2022-11-15T14:55:01;22.48;;;14.40;;
7336;SDS011;54510;42.016;23.098;2022-11-15T14:57:29;20.40;;;12.90;;
7336;SDS011;54510;42.016;23.098;2022-11-15T14:59:55;20.85;;;14.10;;
7336;SDS011;54510;42.016;23.098;2022-11-15T15:02:23;25.83;;;15.88;;
7336;SDS011;54510;42.016;23.098;2022-11-15T15:04:50;34.95;;;24.05;;
7336;SDS011;54510;42.016;23.098;2022-11-15T15:07:16;24.38;;;15.57;;
7336;SDS011;54510;42.016;23.098;2022-11-15T15:09:43;27.83;;;16.27;;
7336;SDS011;54510;42.016;23.098;2022-11-15T15:12:30;26.55;;;14.27;;
7336;SDS011;54510;42.016;23.098;2022-11-15T15:14:55;24.45;;;14.02;;
7336;SDS011;54510;42.016;23.098;2022-11-15T15:17:20;26.95;;;13.77;;
7336;SDS011;54510;42.016;23.098;2022-11-15T15:19:45;21.25;;;13.50;;
7336;SDS011;54510;42.016;23.098;2022-11-15T15:22:15;29.20;;;15.57;;
7336;SDS011;54510;42.016;23.098;2022-11-15T15:24:43;20.58;;;13.68;;
7336;SDS011;54510;42.016;23.098;2022-11-15T15:27:09;25.48;;;14.40;;
7336;SDS011;54510;42.016;23.098;2022-11-15T15:29:34;20.98;;;13.60;;
7336;SDS011;54510;42.016;23.098;2022-11-15T15:32:00;28.92;;;18.25;;
7336;SDS011;54510;42.016;23.098;2022-11-15T15:34:25;30.38;;;19.20;;
7336;SDS011;54510;42.016;23.098;2022-11-15T15:37:06;29.75;;;19.10;;
7336;SDS011;54510;42.016;23.098;2022-11-15T15:39:33;31.55;;;20.30;;
7336;SDS011;54510;42.016;23.098;2022-11-15T15:41:58;26.67;;;17.85;;
7336;SDS011;54510;42.016;23.098;2022-11-15T15:44:24;31.25;;;21.00;;
7336;SDS011;54510;42.016;23.098;2022-11-15T15:46:49;30.23;;;18.13;;
7336;SDS011;54510;42.016;23.098;2022-11-15T15:49:15;36.97;;;25.75;;
7336;SDS011;54510;42.016;23.098;2022-11-15T15:51:40;33.47;;;22.65;;
7336;SDS011;54510;42.016;23.098;2022-11-15T15:54:05;29.83;;;20.00;;
7336;SDS011;54510;42.016;23.098;2022-11-15T15:56:31;28.42;;;19.90;;
7336;SDS011;54510;42.016;23.098;2022-11-15T15:58:56;25.05;;;16.52;;
7336;SDS011;54510;42.016;23.098;2022-11-15T16:01:22;24.17;;;16.52;;
7336;SDS011;54510;42.016;23.098;2022-11-15T16:03:47;26.92;;;16.23;;
7336;SDS011;54510;42.016;23.098;2022-11-15T16:09:13;28.65;;;16.52;;
7336;SDS011;54510;42.016;23.098;2022-11-15T16:11:40;27.83;;;16.83;;
7336;SDS011;54510;42.016;23.098;2022-11-15T16:14:06;30.52;;;17.80;;
7336;SDS011;54510;42.016;23.098;2022-11-15T16:16:32;29.25;;;18.25;;
7336;SDS011;54510;42.016;23.098;2022-11-15T16:18:59;33.03;;;19.13;;
7336;SDS011;54510;42.016;23.098;2022-11-15T16:21:26;27.58;;;18.80;;
7336;SDS011;54510;42.016;23.098;2022-11-15T16:23:52;27.48;;;15.60;;
7336;SDS011;54510;42.016;23.098;2022-11-15T16:26:21;28.83;;;17.67;;
7336;SDS011;54510;42.016;23.098;2022-11-15T16:28:50;32.50;;;18.50;;
7336;SDS011;54510;42.016;23.098;2022-11-15T16:31:15;32.10;;;20.35;;
7336;SDS011;54510;42.016;23.098;2022-11-15T16:33:43;26.05;;;17.63;;
7336;SDS011;54510;42.016;23.098;2022-11-15T16:36:15;27.92;;;17.35;;
7336;SDS011;54510;42.016;23.098;2022-11-15T16:38:47;26.77;;;15.52;;
7336;SDS011;54510;42.016;23.098;2022-11-15T16:41:13;25.83;;;15.88;;
7336;SDS011;54510;42.016;23.098;2022-11-15T16:43:39;27.95;;;15.93;;
7336;SDS011;54510;42.016;23.098;2022-11-15T16:46:20;30.17;;;18.92;;
7336;SDS011;54510;42.016;23.098;2022-11-15T16:48:47;34.92;;;20.90;;
7336;SDS011;54510;42.016;23.098;2022-11-15T16:51:13;30.50;;;17.75;;
7336;SDS011;54510;42.016;23.098;2022-11-15T16:53:39;46.25;;;24.75;;
7336;SDS011;54510;42.016;23.098;2022-11-15T16:58:53;35.53;;;20.80;;